createdAt,value
2022-11-05T00:00:12.911Z,1.40
2022-11-05T00:00:44.247Z,1.38
2022-11-05T00:01:15.798Z,0.80
2022-11-05T00:01:47.280Z,1.70
2022-11-05T00:02:18.689Z,1.45
2022-11-05T00:02:50.252Z,1.00
2022-11-05T00:03:21.682Z,1.70
2022-11-05T00:03:53.299Z,1.60
2022-11-05T00:04:30.637Z,1.45
2022-11-05T00:05:02.453Z,1.20
2022-11-05T00:05:33.786Z,1.33
2022-11-05T00:06:05.479Z,1.38
2022-11-05T00:06:36.822Z,1.73
2022-11-05T00:07:29.403Z,1.93
2022-11-05T00:08:02.683Z,1.50
2022-11-05T00:08:34.177Z,1.20
2022-11-05T00:09:05.755Z,1.63
2022-11-05T00:09:37.091Z,1.30
2022-11-05T00:10:17.776Z,1.35
2022-11-05T00:10:49.648Z,1.00
2022-11-05T00:11:21.039Z,1.63
2022-11-05T00:11:52.466Z,1.65
2022-11-05T00:12:23.856Z,1.13
2022-11-05T00:12:56.520Z,1.17
2022-11-05T00:13:28.004Z,1.38
2022-11-05T00:13:59.427Z,1.23
2022-11-05T00:14:30.841Z,1.85
2022-11-05T00:15:02.170Z,1.77
2022-11-05T00:15:33.605Z,1.10
2022-11-05T00:16:04.930Z,1.25
2022-11-05T00:16:36.287Z,1.38
2022-11-05T00:17:07.670Z,1.60
2022-11-05T00:17:39.464Z,1.27
2022-11-05T00:18:10.790Z,1.90
2022-11-05T00:18:42.131Z,1.10
2022-11-05T00:19:13.563Z,1.52
2022-11-05T00:19:44.890Z,1.45
2022-11-05T00:20:16.286Z,1.80
2022-11-05T00:20:47.641Z,1.45
2022-11-05T00:21:19.009Z,1.45
2022-11-05T00:21:50.394Z,1.20
2022-11-05T00:22:21.738Z,1.65
2022-11-05T00:22:59.836Z,1.40
2022-11-05T00:23:31.212Z,1.20
2022-11-05T00:24:02.638Z,1.30
2022-11-05T00:24:34.039Z,1.42
2022-11-05T00:25:05.531Z,1.13
2022-11-05T00:25:36.905Z,1.52
2022-11-05T00:26:09.921Z,1.17
2022-11-05T00:26:41.262Z,1.00
2022-11-05T00:27:12.704Z,1.40
2022-11-05T00:27:44.969Z,1.17
2022-11-05T00:28:16.338Z,1.23
2022-11-05T00:28:47.728Z,1.45
2022-11-05T00:29:19.099Z,1.10
2022-11-05T00:29:50.503Z,1.63
2022-11-05T00:30:23.283Z,1.25
2022-11-05T00:30:59.366Z,0.82
2022-11-05T00:31:32.099Z,1.70
2022-11-05T00:32:03.519Z,1.10
2022-11-05T00:32:34.920Z,1.58
2022-11-05T00:33:06.290Z,1.30
2022-11-05T00:33:38.304Z,1.10
2022-11-05T00:34:09.682Z,1.10
2022-11-05T00:34:41.011Z,1.00
2022-11-05T00:35:12.810Z,1.35
2022-11-05T00:35:44.194Z,1.15
2022-11-05T00:36:15.531Z,1.52
2022-11-05T00:36:46.921Z,1.83
2022-11-05T00:37:18.304Z,1.30
2022-11-05T00:37:50.618Z,1.08
2022-11-05T00:38:22.296Z,1.10
2022-11-05T00:38:53.637Z,0.90
2022-11-05T00:39:25.018Z,0.90
2022-11-05T00:39:56.412Z,1.25
2022-11-05T00:40:27.788Z,1.10
2022-11-05T00:40:59.140Z,1.38
2022-11-05T00:41:30.521Z,1.05
2022-11-05T00:42:01.855Z,1.30
2022-11-05T00:42:33.393Z,1.48
2022-11-05T00:43:04.725Z,1.67
2022-11-05T00:43:36.125Z,0.98
2022-11-05T00:44:07.497Z,1.38
2022-11-05T00:44:38.887Z,1.00
2022-11-05T00:45:10.442Z,1.27
2022-11-05T00:45:41.859Z,1.00
2022-11-05T00:46:13.254Z,1.80
2022-11-05T00:46:44.689Z,1.00
2022-11-05T00:47:16.019Z,1.27
2022-11-05T00:47:47.364Z,1.60
2022-11-05T00:48:18.690Z,1.27
2022-11-05T00:48:50.025Z,1.08
2022-11-05T00:49:21.414Z,1.15
2022-11-05T00:49:52.799Z,1.02
2022-11-05T00:50:24.598Z,1.52
2022-11-05T00:50:55.983Z,0.95
2022-11-05T00:51:27.368Z,0.90
2022-11-05T00:51:58.757Z,1.00
2022-11-05T00:52:30.190Z,1.10
2022-11-05T00:53:02.703Z,1.13
2022-11-05T00:53:34.342Z,1.30
2022-11-05T00:54:05.675Z,1.15
2022-11-05T00:54:37.016Z,1.38
2022-11-05T00:55:08.397Z,0.93
2022-11-05T00:55:41.004Z,0.90
2022-11-05T00:56:12.503Z,1.10
2022-11-05T00:56:43.843Z,1.27
2022-11-05T00:57:15.280Z,1.52
2022-11-05T00:57:46.616Z,1.08
2022-11-05T00:58:18.996Z,1.08
2022-11-05T00:58:50.404Z,0.93
2022-11-05T00:59:21.793Z,0.98
2022-11-05T00:59:53.178Z,1.08
2022-11-05T01:00:25.740Z,1.27
2022-11-05T01:00:57.853Z,0.95
2022-11-05T01:01:29.330Z,1.13
2022-11-05T01:02:00.939Z,1.02
2022-11-05T01:02:32.793Z,1.15
2022-11-05T01:03:06.048Z,0.93
2022-11-05T01:03:38.875Z,1.60
2022-11-05T01:04:10.207Z,0.82
2022-11-05T01:04:41.592Z,1.10
2022-11-05T01:05:13.552Z,1.30
2022-11-05T01:05:48.626Z,1.08
2022-11-05T01:06:20.102Z,1.10
2022-11-05T01:06:51.558Z,0.90
2022-11-05T01:07:22.989Z,1.20
2022-11-05T01:07:54.673Z,1.23
2022-11-05T01:08:27.287Z,0.95
2022-11-05T01:08:58.675Z,0.98
2022-11-05T01:09:30.053Z,1.03
2022-11-05T01:10:01.534Z,1.58
2022-11-05T01:10:32.880Z,1.80
2022-11-05T01:11:12.153Z,1.02
2022-11-05T01:11:46.097Z,0.93
2022-11-05T01:12:17.582Z,0.77
2022-11-05T01:12:49.342Z,1.40
2022-11-05T01:13:22.768Z,1.10
2022-11-05T01:13:54.155Z,0.73
2022-11-05T01:14:25.536Z,1.00
2022-11-05T01:14:59.378Z,1.23
2022-11-05T01:15:30.873Z,1.10
2022-11-05T01:16:09.425Z,1.30
2022-11-05T01:16:40.820Z,0.67
2022-11-05T01:17:12.198Z,1.45
2022-11-05T01:17:43.627Z,1.38
2022-11-05T01:18:15.131Z,1.33
2022-11-05T01:18:46.492Z,1.02
2022-11-05T01:19:17.896Z,1.00
2022-11-05T01:19:49.332Z,1.20
2022-11-05T01:20:20.822Z,0.90
2022-11-05T01:20:52.386Z,0.88
2022-11-05T01:21:23.795Z,1.15
2022-11-05T01:21:55.182Z,1.38
2022-11-05T01:22:26.617Z,1.13
2022-11-05T01:22:58.312Z,1.00
2022-11-05T01:23:29.853Z,1.27
2022-11-05T01:24:01.798Z,1.05
2022-11-05T01:24:33.160Z,0.95
2022-11-05T01:25:04.927Z,1.40
2022-11-05T01:25:36.370Z,1.00
2022-11-05T01:26:08.893Z,1.17
2022-11-05T01:26:40.327Z,1.50
2022-11-05T01:27:11.725Z,1.85
2022-11-05T01:27:43.243Z,1.57
2022-11-05T01:28:15.051Z,1.13
2022-11-05T01:28:50.456Z,0.98
2022-11-05T01:29:22.985Z,0.95
2022-11-05T01:29:54.426Z,1.48
2022-11-05T01:30:25.742Z,1.38
2022-11-05T01:30:57.448Z,1.65
2022-11-05T01:31:28.926Z,0.90
2022-11-05T01:32:00.327Z,1.17
2022-11-05T01:32:31.701Z,1.73
2022-11-05T01:33:03.102Z,0.90
2022-11-05T01:33:34.874Z,0.90
2022-11-05T01:34:06.339Z,1.70
2022-11-05T01:34:37.821Z,1.70
2022-11-05T01:35:11.055Z,1.40
2022-11-05T01:35:42.456Z,1.10
2022-11-05T01:36:13.929Z,1.10
2022-11-05T01:36:45.256Z,0.80
2022-11-05T01:37:16.604Z,1.00
2022-11-05T01:37:48.047Z,0.90
2022-11-05T01:38:19.817Z,1.00
2022-11-05T01:38:51.186Z,1.13
2022-11-05T01:39:22.602Z,1.17
2022-11-05T01:39:53.978Z,1.05
2022-11-05T01:40:25.729Z,0.90
2022-11-05T01:40:57.115Z,1.10
2022-11-05T01:41:28.446Z,0.80
2022-11-05T01:41:59.875Z,0.85
2022-11-05T01:42:31.884Z,0.93
2022-11-05T01:43:03.268Z,0.90
2022-11-05T01:44:04.206Z,0.70
2022-11-05T01:44:50.537Z,0.88
2022-11-05T01:45:23.314Z,1.13
2022-11-05T01:45:57.395Z,0.80
2022-11-05T01:46:34.480Z,0.95
2022-11-05T01:47:05.863Z,1.50
2022-11-05T01:47:39.948Z,1.00
2022-11-05T01:48:11.308Z,0.90
2022-11-05T01:48:42.736Z,0.90
2022-11-05T01:49:20.062Z,0.50
2022-11-05T01:49:51.750Z,0.68
2022-11-05T01:50:29.027Z,0.70
2022-11-05T01:51:00.357Z,0.90
2022-11-05T01:51:32.064Z,0.68
2022-11-05T01:52:04.315Z,0.70
2022-11-05T01:52:35.852Z,0.57
2022-11-05T01:53:13.688Z,0.70
2022-11-05T01:53:50.710Z,0.88
2022-11-05T01:54:24.359Z,0.30
2022-11-05T01:54:56.061Z,0.73
2022-11-05T01:55:29.168Z,0.75
2022-11-05T01:56:03.982Z,0.52
2022-11-05T01:56:41.013Z,0.60
2022-11-05T01:57:12.793Z,0.80
2022-11-05T01:57:44.235Z,0.88
2022-11-05T01:58:17.928Z,0.63
2022-11-05T01:58:52.332Z,0.57
2022-11-05T01:59:29.604Z,0.80
2022-11-05T02:00:01.402Z,0.73
2022-11-05T02:00:33.253Z,0.80
2022-11-05T02:01:04.633Z,0.80
2022-11-05T02:01:36.325Z,0.60
2022-11-05T02:02:07.901Z,0.60
2022-11-05T02:02:39.536Z,0.47
2022-11-05T02:03:12.460Z,0.93
2022-11-05T02:03:44.988Z,0.87
2022-11-05T02:04:20.071Z,0.80
2022-11-05T02:05:00.574Z,0.68
2022-11-05T02:05:32.976Z,0.55
2022-11-05T02:06:04.785Z,0.70
2022-11-05T02:06:39.346Z,0.40
2022-11-05T02:07:11.346Z,0.63
2022-11-05T02:07:45.329Z,0.43
2022-11-05T02:08:21.899Z,0.65
2022-11-05T02:09:02.196Z,0.47
2022-11-05T02:09:36.634Z,0.80
2022-11-05T02:10:12.849Z,0.80
2022-11-05T02:10:45.556Z,0.43
2022-11-05T02:11:18.269Z,0.60
2022-11-05T02:11:51.056Z,0.70
2022-11-05T02:12:22.889Z,0.80
2022-11-05T02:12:54.280Z,1.50
2022-11-05T02:13:25.613Z,0.60
2022-11-05T02:13:56.997Z,0.60
2022-11-05T02:14:28.384Z,0.70
2022-11-05T02:14:59.832Z,0.70
2022-11-05T02:15:42.783Z,0.65
2022-11-05T02:16:29.164Z,1.40
2022-11-05T02:17:23.851Z,0.50
2022-11-05T02:18:12.034Z,0.70
2022-11-05T02:18:49.860Z,0.77
2022-11-05T02:19:40.041Z,0.28
2022-11-05T02:20:14.501Z,0.70
2022-11-05T02:20:52.333Z,0.70
2022-11-05T02:21:42.411Z,0.70
2022-11-05T02:22:25.740Z,0.68
2022-11-05T02:22:57.064Z,1.52
2022-11-05T02:23:37.562Z,0.60
2022-11-05T02:24:23.801Z,0.50
2022-11-05T02:24:58.160Z,0.90
2022-11-05T02:25:47.942Z,0.80
2022-11-05T02:26:19.311Z,0.75
2022-11-05T02:27:09.384Z,0.63
2022-11-05T02:27:40.715Z,0.75
2022-11-05T02:28:21.123Z,1.08
2022-11-05T02:29:11.490Z,1.00
2022-11-05T02:30:02.489Z,0.77
2022-11-05T02:30:39.865Z,0.70
2022-11-05T02:31:15.760Z,0.80
2022-11-05T02:31:47.092Z,0.80
2022-11-05T02:32:37.117Z,0.82
2022-11-05T02:33:20.385Z,1.20
2022-11-05T02:33:57.859Z,0.60
2022-11-05T02:34:37.285Z,0.57
2022-11-05T02:35:11.689Z,0.65
2022-11-05T02:35:49.234Z,0.60
2022-11-05T02:36:20.554Z,0.70
2022-11-05T02:37:01.109Z,0.60
2022-11-05T02:37:32.459Z,0.90
2022-11-05T02:38:08.751Z,1.02
2022-11-05T02:38:55.798Z,0.73
2022-11-05T02:39:43.715Z,0.90
2022-11-05T02:40:27.501Z,0.50
2022-11-05T02:41:04.671Z,0.65
2022-11-05T02:41:41.631Z,0.40
2022-11-05T02:42:21.940Z,0.75
2022-11-05T02:42:56.338Z,0.80
2022-11-05T02:43:34.787Z,0.43
2022-11-05T02:44:06.233Z,0.70
2022-11-05T02:44:40.327Z,0.20
2022-11-05T02:45:30.451Z,0.70
2022-11-05T02:46:11.057Z,0.90
2022-11-05T02:46:45.211Z,0.70
2022-11-05T02:47:25.754Z,0.70
2022-11-05T02:48:01.759Z,1.30
2022-11-05T02:48:33.086Z,0.52
2022-11-05T02:49:13.281Z,0.57
2022-11-05T02:49:47.735Z,0.88
2022-11-05T02:50:30.545Z,0.80
2022-11-05T02:51:08.068Z,0.95
2022-11-05T02:51:44.268Z,0.65
2022-11-05T02:52:19.808Z,0.47
2022-11-05T02:53:10.095Z,0.73
2022-11-05T02:53:47.515Z,0.75
2022-11-05T02:54:26.330Z,0.60
2022-11-05T02:55:16.399Z,0.77
2022-11-05T02:56:13.824Z,0.68
2022-11-05T02:56:47.112Z,0.80
2022-11-05T02:57:20.719Z,0.40
2022-11-05T02:57:52.207Z,0.75
2022-11-05T02:58:23.577Z,0.82
2022-11-05T02:58:54.973Z,0.73
2022-11-05T02:59:26.572Z,0.50
2022-11-05T03:00:01.738Z,0.75
2022-11-05T03:00:50.276Z,0.98
2022-11-05T03:01:21.736Z,0.60
2022-11-05T03:01:53.928Z,0.65
2022-11-05T03:02:25.666Z,0.70
2022-11-05T03:02:57.296Z,0.80
2022-11-05T03:04:16.377Z,0.75
2022-11-05T03:04:47.777Z,0.40
2022-11-05T03:05:21.481Z,0.57
2022-11-05T03:05:55.924Z,0.88
2022-11-05T03:06:37.192Z,0.47
2022-11-05T03:07:23.650Z,0.93
2022-11-05T03:07:58.524Z,0.50
2022-11-05T03:08:48.595Z,0.65
2022-11-05T03:09:38.933Z,1.20
2022-11-05T03:10:22.329Z,0.57
2022-11-05T03:11:08.221Z,0.77
2022-11-05T03:11:59.824Z,0.32
2022-11-05T03:12:31.163Z,0.50
2022-11-05T03:13:22.626Z,0.80
2022-11-05T03:13:58.614Z,0.50
2022-11-05T03:14:45.318Z,0.90
2022-11-05T03:15:16.669Z,1.08
2022-11-05T03:15:48.049Z,1.02
2022-11-05T03:16:25.928Z,0.60
2022-11-05T03:17:00.334Z,0.60
2022-11-05T03:17:46.725Z,0.47
2022-11-05T03:18:30.284Z,0.60
2022-11-05T03:19:08.070Z,0.63
2022-11-05T03:20:08.710Z,0.40
2022-11-05T03:21:02.978Z,0.55
2022-11-05T03:21:44.001Z,0.60
2022-11-05T03:22:18.331Z,0.30
2022-11-05T03:23:10.185Z,0.30
2022-11-05T03:23:44.818Z,0.80
2022-11-05T03:24:20.232Z,0.28
2022-11-05T03:24:54.902Z,1.00
2022-11-05T03:25:28.113Z,0.60
2022-11-05T03:26:04.582Z,0.77
2022-11-05T03:26:39.667Z,0.68
2022-11-05T03:27:13.453Z,0.32
2022-11-05T03:27:46.990Z,0.50
2022-11-05T03:28:19.821Z,0.40
2022-11-05T03:28:54.629Z,0.60
2022-11-05T03:29:28.522Z,0.43
2022-11-05T03:30:07.441Z,0.45
2022-11-05T03:30:39.943Z,0.45
2022-11-05T03:31:12.622Z,0.60
2022-11-05T03:31:45.638Z,0.70
2022-11-05T03:32:18.358Z,0.50
2022-11-05T03:32:56.092Z,0.50
2022-11-05T03:33:28.604Z,0.40
2022-11-05T03:34:01.166Z,0.40
2022-11-05T03:34:35.363Z,0.50
2022-11-05T03:35:17.038Z,0.35
2022-11-05T03:35:51.558Z,0.50
2022-11-05T03:36:28.469Z,0.60
2022-11-05T03:37:00.825Z,0.45
2022-11-05T03:37:33.763Z,0.70
2022-11-05T03:38:13.446Z,0.52
2022-11-05T03:38:46.964Z,0.70
2022-11-05T03:39:28.190Z,0.43
2022-11-05T03:40:01.550Z,0.40
2022-11-05T03:40:34.954Z,0.50
2022-11-05T03:41:08.539Z,0.52
2022-11-05T03:41:41.568Z,1.02
2022-11-05T03:42:14.178Z,0.32
2022-11-05T03:42:47.416Z,0.52
2022-11-05T03:43:20.639Z,0.47
2022-11-05T03:43:54.382Z,0.90
2022-11-05T03:44:28.940Z,0.73
2022-11-05T03:45:01.983Z,0.35
2022-11-05T03:45:53.804Z,0.25
2022-11-05T03:46:27.883Z,0.30
2022-11-05T03:47:15.552Z,0.52
2022-11-05T03:47:48.834Z,0.28
2022-11-05T03:48:20.539Z,0.30
2022-11-05T03:48:53.658Z,0.60
2022-11-05T03:49:26.677Z,0.22
2022-11-05T03:50:18.294Z,0.33
2022-11-05T03:50:53.854Z,0.38
2022-11-05T03:51:57.801Z,0.30
2022-11-05T03:52:32.074Z,0.30
2022-11-05T03:53:22.403Z,0.55
2022-11-05T03:53:58.969Z,0.50
2022-11-05T03:54:30.509Z,0.40
2022-11-05T03:55:01.943Z,0.40
2022-11-05T03:55:36.085Z,0.13
2022-11-05T03:56:14.079Z,0.20
2022-11-05T03:56:45.426Z,0.20
2022-11-05T03:57:21.881Z,0.20
2022-11-05T03:57:54.540Z,0.25
2022-11-05T03:58:26.176Z,0.45
2022-11-05T03:58:59.415Z,0.90
2022-11-05T03:59:31.796Z,2.45
2022-11-05T04:00:06.124Z,0.15
2022-11-05T04:00:38.275Z,0.17
2022-11-05T04:01:09.711Z,0.50
2022-11-05T04:01:41.817Z,0.30
2022-11-05T04:02:14.393Z,0.20
2022-11-05T04:02:46.013Z,0.22
2022-11-05T04:03:17.527Z,0.40
2022-11-05T04:03:48.898Z,0.57
2022-11-05T04:04:20.284Z,0.25
2022-11-05T04:04:52.130Z,0.20
2022-11-05T04:05:23.485Z,0.50
2022-11-05T04:05:55.933Z,0.30
2022-11-05T04:06:27.308Z,0.40
2022-11-05T04:06:58.705Z,0.28
2022-11-05T04:07:30.084Z,0.40
2022-11-05T04:08:01.428Z,0.80
2022-11-05T04:08:32.851Z,0.20
2022-11-05T04:09:04.244Z,0.40
2022-11-05T04:09:35.627Z,0.35
2022-11-05T04:10:07.064Z,0.25
2022-11-05T04:10:38.454Z,0.52
2022-11-05T04:11:11.269Z,0.20
2022-11-05T04:11:42.659Z,0.35
2022-11-05T04:12:13.994Z,0.40
2022-11-05T04:12:45.326Z,0.30
2022-11-05T04:13:16.864Z,0.28
2022-11-05T04:13:48.256Z,0.38
2022-11-05T04:14:19.843Z,0.30
2022-11-05T04:14:51.234Z,0.30
2022-11-05T04:15:22.661Z,0.30
2022-11-05T04:15:56.103Z,0.47
2022-11-05T04:16:27.486Z,0.28
2022-11-05T04:16:59.087Z,0.27
2022-11-05T04:17:30.491Z,0.20
2022-11-05T04:18:01.899Z,0.35
2022-11-05T04:18:33.340Z,0.28
2022-11-05T04:19:04.778Z,0.35
2022-11-05T04:19:36.933Z,0.20
2022-11-05T04:20:08.687Z,0.52
2022-11-05T04:20:40.169Z,0.35
2022-11-05T04:21:11.701Z,0.20
2022-11-05T04:21:43.093Z,0.40
2022-11-05T04:22:14.488Z,0.40
2022-11-05T04:22:45.909Z,0.20
2022-11-05T04:23:17.307Z,0.20
2022-11-05T04:23:48.854Z,0.25
2022-11-05T04:24:20.231Z,0.20
2022-11-05T04:24:51.618Z,0.60
2022-11-05T04:25:23.214Z,0.20
2022-11-05T04:25:54.830Z,0.30
2022-11-05T04:26:26.238Z,0.30
2022-11-05T04:26:57.618Z,0.25
2022-11-05T04:27:28.999Z,0.50
2022-11-05T04:28:00.386Z,0.30
2022-11-05T04:28:31.718Z,0.40
2022-11-05T04:29:07.798Z,0.30
2022-11-05T04:29:39.369Z,0.20
2022-11-05T04:30:11.212Z,0.22
2022-11-05T04:30:42.755Z,0.60
2022-11-05T04:31:14.080Z,0.20
2022-11-05T04:31:45.531Z,0.32
2022-11-05T04:32:16.910Z,0.35
2022-11-05T04:33:00.593Z,0.22
2022-11-05T04:33:31.908Z,0.30
2022-11-05T04:34:03.306Z,0.47
2022-11-05T04:34:34.693Z,0.47
2022-11-05T04:35:06.129Z,0.20
2022-11-05T04:35:40.272Z,0.30
2022-11-05T04:36:11.603Z,0.30
2022-11-05T04:36:42.995Z,0.40
2022-11-05T04:37:14.385Z,0.45
2022-11-05T04:37:45.776Z,0.30
2022-11-05T04:38:18.332Z,0.50
2022-11-05T04:38:49.664Z,0.20
2022-11-05T04:39:21.087Z,0.45
2022-11-05T04:39:52.442Z,0.35
2022-11-05T04:40:23.828Z,0.70
2022-11-05T04:41:11.594Z,0.30
2022-11-05T04:41:42.929Z,0.20
2022-11-05T04:42:14.366Z,0.25
2022-11-05T04:42:45.804Z,0.30
2022-11-05T04:43:18.629Z,0.25
2022-11-05T04:43:50.375Z,0.45
2022-11-05T04:44:21.739Z,0.32
2022-11-05T04:44:53.097Z,0.50
2022-11-05T04:45:25.245Z,0.20
2022-11-05T04:45:56.609Z,0.28
2022-11-05T04:46:28.016Z,0.40
2022-11-05T04:46:59.353Z,0.45
2022-11-05T04:47:30.895Z,0.38
2022-11-05T04:48:03.098Z,1.33
2022-11-05T04:48:34.937Z,0.40
2022-11-05T04:49:06.273Z,0.40
2022-11-05T04:49:37.660Z,0.40
2022-11-05T04:50:09.261Z,0.30
2022-11-05T04:50:40.593Z,0.25
2022-11-05T04:51:11.974Z,0.80
2022-11-05T04:51:43.414Z,0.50
2022-11-05T04:52:14.755Z,0.20
2022-11-05T04:52:46.129Z,0.40
2022-11-05T04:53:17.474Z,0.40
2022-11-05T04:53:48.852Z,0.85
2022-11-05T04:54:20.188Z,0.57
2022-11-05T04:54:51.532Z,0.80
2022-11-05T04:55:23.066Z,0.70
2022-11-05T04:55:54.446Z,0.50
2022-11-05T04:56:25.833Z,0.87
2022-11-05T04:56:57.326Z,0.55
2022-11-05T04:57:28.666Z,0.57
2022-11-05T04:58:00.060Z,0.32
2022-11-05T04:58:31.536Z,0.95
2022-11-05T04:59:02.969Z,0.75
2022-11-05T04:59:34.359Z,0.95
2022-11-05T05:00:06.658Z,0.50
2022-11-05T05:00:38.076Z,0.47
2022-11-05T05:01:13.400Z,0.50
2022-11-05T05:01:51.235Z,0.60
2022-11-05T05:02:22.657Z,0.60
2022-11-05T05:02:54.187Z,0.57
2022-11-05T05:03:25.580Z,0.40
2022-11-05T05:03:56.959Z,0.80
2022-11-05T05:04:28.399Z,0.45
2022-11-05T05:04:59.799Z,0.60
2022-11-05T05:05:31.225Z,1.00
2022-11-05T05:06:04.199Z,0.67
2022-11-05T05:06:35.656Z,0.65
2022-11-05T05:07:07.406Z,0.35
2022-11-05T05:07:38.827Z,0.50
2022-11-05T05:08:10.266Z,0.63
2022-11-05T05:08:41.800Z,1.27
2022-11-05T05:09:13.186Z,1.02
2022-11-05T05:09:44.627Z,0.60
2022-11-05T05:10:15.943Z,0.68
2022-11-05T05:10:47.336Z,0.32
2022-11-05T05:11:20.023Z,0.53
2022-11-05T05:11:51.392Z,0.55
2022-11-05T05:12:22.751Z,0.60
2022-11-05T05:12:54.112Z,0.52
2022-11-05T05:13:25.497Z,0.63
2022-11-05T05:13:57.558Z,0.50
2022-11-05T05:14:29.041Z,1.20
2022-11-05T05:15:00.421Z,0.90
2022-11-05T05:15:31.804Z,0.60
2022-11-05T05:16:06.733Z,0.70
2022-11-05T05:16:38.111Z,0.90
2022-11-05T05:17:09.708Z,0.52
2022-11-05T05:17:41.091Z,1.02
2022-11-05T05:18:12.476Z,0.50
2022-11-05T05:18:46.386Z,0.60
2022-11-05T05:19:18.072Z,0.90
2022-11-05T05:19:49.506Z,0.50
2022-11-05T05:20:20.818Z,0.77
2022-11-05T05:20:52.895Z,0.70
2022-11-05T05:21:24.273Z,0.88
2022-11-05T05:21:55.672Z,1.25
2022-11-05T05:22:27.360Z,0.98
2022-11-05T05:22:58.692Z,0.82
2022-11-05T05:23:30.083Z,0.80
2022-11-05T05:24:01.462Z,0.90
2022-11-05T05:24:32.870Z,1.05
2022-11-05T05:25:04.389Z,1.40
2022-11-05T05:25:35.761Z,0.70
2022-11-05T05:26:07.160Z,0.85
2022-11-05T05:26:39.469Z,0.80
2022-11-05T05:27:10.859Z,0.98
2022-11-05T05:27:42.192Z,1.05
2022-11-05T05:28:13.579Z,0.60
2022-11-05T05:28:44.960Z,1.20
2022-11-05T05:29:16.910Z,1.20
2022-11-05T05:29:48.458Z,0.90
2022-11-05T05:30:19.838Z,1.08
2022-11-05T05:30:56.152Z,0.90
2022-11-05T05:31:29.988Z,0.93
2022-11-05T05:32:01.419Z,1.27
2022-11-05T05:32:32.973Z,0.80
2022-11-05T05:33:04.547Z,0.80
2022-11-05T05:33:35.947Z,1.08
2022-11-05T05:34:08.444Z,1.00
2022-11-05T05:34:39.801Z,0.85
2022-11-05T05:35:11.220Z,1.25
2022-11-05T05:35:42.609Z,0.85
2022-11-05T05:36:14.025Z,1.02
2022-11-05T05:36:45.432Z,1.33
2022-11-05T05:37:16.823Z,1.10
2022-11-05T05:37:48.202Z,1.08
2022-11-05T05:38:19.589Z,1.10
2022-11-05T05:38:50.971Z,1.23
2022-11-05T05:39:22.357Z,1.15
2022-11-05T05:39:53.693Z,1.08
2022-11-05T05:40:25.082Z,1.40
2022-11-05T05:40:59.546Z,1.10
2022-11-05T05:41:30.926Z,1.70
2022-11-05T05:42:02.308Z,1.50
2022-11-05T05:42:37.448Z,1.83
2022-11-05T05:43:11.972Z,1.25
2022-11-05T05:43:43.683Z,1.10
2022-11-05T05:44:15.073Z,1.17
2022-11-05T05:44:46.456Z,1.23
2022-11-05T05:45:17.846Z,1.10
2022-11-05T05:45:49.240Z,1.20
2022-11-05T05:46:20.571Z,1.98
2022-11-05T05:46:53.639Z,1.40
2022-11-05T05:47:25.092Z,1.58
2022-11-05T05:47:56.418Z,1.10
2022-11-05T05:48:27.803Z,1.27
2022-11-05T05:48:59.192Z,1.00
2022-11-05T05:49:30.578Z,0.85
2022-11-05T05:50:01.909Z,1.42
2022-11-05T05:50:33.447Z,1.27
2022-11-05T05:51:09.345Z,1.38
2022-11-05T05:51:40.693Z,1.65
2022-11-05T05:52:12.116Z,1.27
2022-11-05T05:52:43.460Z,1.30
2022-11-05T05:53:14.837Z,0.85
2022-11-05T05:53:46.246Z,1.20
2022-11-05T05:54:17.659Z,1.10
2022-11-05T05:54:48.994Z,1.50
2022-11-05T05:55:20.557Z,1.30
2022-11-05T05:55:53.251Z,1.35
2022-11-05T05:56:24.608Z,1.20
2022-11-05T05:56:56.016Z,1.35
2022-11-05T05:57:27.408Z,0.82
2022-11-05T05:57:58.792Z,1.15
2022-11-05T05:58:34.216Z,1.60
2022-11-05T05:59:06.024Z,1.10
2022-11-05T05:59:37.459Z,1.42
2022-11-05T06:00:09.299Z,1.25
2022-11-05T06:00:40.689Z,1.05
2022-11-05T06:01:18.669Z,1.00
2022-11-05T06:01:50.971Z,0.93
2022-11-05T06:02:22.612Z,1.85
2022-11-05T06:02:55.365Z,1.10
2022-11-05T06:03:26.886Z,1.17
2022-11-05T06:03:58.278Z,1.08
2022-11-05T06:04:29.664Z,1.10
2022-11-05T06:05:01.056Z,1.17
2022-11-05T06:05:32.377Z,1.10
2022-11-05T06:06:05.182Z,1.00
2022-11-05T06:06:36.640Z,1.48
2022-11-05T06:07:08.158Z,1.38
2022-11-05T06:07:39.513Z,1.13
2022-11-05T06:08:10.997Z,1.00
2022-11-05T06:08:42.503Z,1.13
2022-11-05T06:09:14.192Z,1.40
2022-11-05T06:09:45.669Z,1.17
2022-11-05T06:10:17.150Z,1.20
2022-11-05T06:10:52.136Z,1.13
2022-11-05T06:11:24.657Z,2.10
2022-11-05T06:11:56.086Z,1.55
2022-11-05T06:12:29.319Z,1.00
2022-11-05T06:13:01.053Z,1.33
2022-11-05T06:13:32.761Z,1.00
2022-11-05T06:14:04.138Z,1.40
2022-11-05T06:14:35.465Z,1.73
2022-11-05T06:15:07.012Z,1.45
2022-11-05T06:15:38.395Z,1.13
2022-11-05T06:16:10.089Z,1.10
2022-11-05T06:16:41.475Z,1.40
2022-11-05T06:17:12.857Z,1.00
2022-11-05T06:17:44.560Z,1.10
2022-11-05T06:18:15.946Z,1.20
2022-11-05T06:18:47.378Z,0.90
2022-11-05T06:19:18.813Z,1.20
2022-11-05T06:19:50.248Z,1.30
2022-11-05T06:20:21.638Z,0.93
2022-11-05T06:20:53.022Z,1.10
2022-11-05T06:21:24.365Z,1.08
2022-11-05T06:21:55.752Z,1.85
2022-11-05T06:22:27.123Z,1.20
2022-11-05T06:22:58.523Z,1.20
2022-11-05T06:23:30.724Z,1.00
2022-11-05T06:24:02.413Z,1.15
2022-11-05T06:24:33.801Z,1.15
2022-11-05T06:25:05.762Z,1.17
2022-11-05T06:25:41.031Z,1.17
2022-11-05T06:26:14.413Z,0.70
2022-11-05T06:26:45.794Z,1.17
2022-11-05T06:27:17.152Z,0.93
2022-11-05T06:27:48.564Z,1.48
2022-11-05T06:28:19.952Z,1.20
2022-11-05T06:28:51.298Z,1.15
2022-11-05T06:29:22.728Z,1.23
2022-11-05T06:29:54.070Z,1.00
2022-11-05T06:30:25.645Z,0.98
2022-11-05T06:30:57.394Z,1.13
2022-11-05T06:31:28.741Z,0.95
2022-11-05T06:32:00.119Z,0.80
2022-11-05T06:32:31.502Z,1.20
2022-11-05T06:33:04.120Z,1.10
2022-11-05T06:33:35.566Z,0.88
2022-11-05T06:34:07.095Z,0.97
2022-11-05T06:34:38.478Z,0.93
2022-11-05T06:35:09.957Z,0.73
2022-11-05T06:35:41.357Z,0.82
2022-11-05T06:36:14.989Z,0.90
2022-11-05T06:36:46.378Z,1.23
2022-11-05T06:37:17.721Z,1.15
2022-11-05T06:37:49.103Z,1.08
2022-11-05T06:38:20.611Z,0.77
2022-11-05T06:38:51.976Z,1.00
2022-11-05T06:39:23.358Z,1.05
2022-11-05T06:39:54.747Z,1.13
2022-11-05T06:40:26.084Z,0.80
2022-11-05T06:41:02.411Z,0.80
2022-11-05T06:41:56.865Z,0.82
2022-11-05T06:42:28.558Z,0.70
2022-11-05T06:42:59.891Z,1.13
2022-11-05T06:43:33.290Z,1.00
2022-11-05T06:44:05.121Z,0.65
2022-11-05T06:44:36.445Z,1.42
2022-11-05T06:45:08.148Z,0.93
2022-11-05T06:45:39.482Z,0.80
2022-11-05T06:46:11.388Z,0.82
2022-11-05T06:46:48.143Z,1.02
2022-11-05T06:47:20.147Z,1.20
2022-11-05T06:47:55.216Z,0.70
2022-11-05T06:48:26.553Z,0.90
2022-11-05T06:48:57.892Z,1.07
2022-11-05T06:49:29.359Z,0.85
2022-11-05T06:50:00.706Z,1.30
2022-11-05T06:50:32.250Z,0.90
2022-11-05T06:51:04.352Z,0.47
2022-11-05T06:51:35.674Z,0.52
2022-11-05T06:52:07.008Z,1.00
2022-11-05T06:52:41.384Z,0.80
2022-11-05T06:53:13.529Z,0.70
2022-11-05T06:53:45.055Z,0.50
2022-11-05T06:54:16.830Z,0.85
2022-11-05T06:54:48.211Z,0.88
2022-11-05T06:55:19.592Z,0.98
2022-11-05T06:55:51.012Z,0.68
2022-11-05T06:56:22.414Z,0.40
2022-11-05T06:56:54.660Z,0.88
2022-11-05T06:57:26.054Z,0.85
2022-11-05T06:57:57.742Z,0.70
2022-11-05T06:58:29.138Z,0.52
2022-11-05T06:59:00.483Z,0.68
2022-11-05T06:59:31.970Z,2.65
2022-11-05T07:00:07.882Z,0.93
2022-11-05T07:00:39.980Z,0.75
2022-11-05T07:01:12.858Z,1.13
2022-11-05T07:01:44.451Z,1.10
2022-11-05T07:02:16.049Z,0.75
2022-11-05T07:02:47.798Z,0.70
2022-11-05T07:03:19.189Z,0.82
2022-11-05T07:03:50.517Z,0.75
2022-11-05T07:04:21.905Z,0.60
2022-11-05T07:04:53.289Z,0.95
2022-11-05T07:05:24.689Z,1.08
2022-11-05T07:05:56.944Z,0.70
2022-11-05T07:06:30.900Z,0.85
2022-11-05T07:07:04.468Z,0.77
2022-11-05T07:07:35.804Z,0.70
2022-11-05T07:08:07.177Z,0.57
2022-11-05T07:08:38.520Z,0.63
2022-11-05T07:09:09.912Z,0.67
2022-11-05T07:09:41.244Z,0.82
2022-11-05T07:10:13.959Z,0.90
2022-11-05T07:10:45.317Z,0.50
2022-11-05T07:11:16.683Z,0.82
2022-11-05T07:11:48.074Z,1.02
2022-11-05T07:12:19.402Z,0.73
2022-11-05T07:12:50.740Z,0.80
2022-11-05T07:13:22.070Z,0.80
2022-11-05T07:13:53.462Z,1.02
2022-11-05T07:14:24.843Z,0.90
2022-11-05T07:14:56.229Z,1.00
2022-11-05T07:15:27.722Z,0.80
2022-11-05T07:15:59.162Z,1.55
2022-11-05T07:16:30.547Z,0.60
2022-11-05T07:17:01.865Z,0.77
2022-11-05T07:17:33.312Z,0.77
2022-11-05T07:18:05.177Z,0.68
2022-11-05T07:18:36.554Z,0.90
2022-11-05T07:19:07.894Z,0.80
2022-11-05T07:19:39.279Z,0.52
2022-11-05T07:20:10.909Z,0.80
2022-11-05T07:20:42.448Z,0.80
2022-11-05T07:21:13.840Z,0.63
2022-11-05T07:21:45.185Z,0.75
2022-11-05T07:22:16.568Z,0.65
2022-11-05T07:22:47.898Z,0.65
2022-11-05T07:23:19.236Z,0.60
2022-11-05T07:23:50.724Z,0.70
2022-11-05T07:24:22.154Z,0.70
2022-11-05T07:24:53.544Z,0.80
2022-11-05T07:25:24.879Z,1.00